Enterprise, West Virginia
Current Conditions -  °F | °C
As of 3:53 PM on Saturday 22 Nov 2014 (Local Time) from KCKB Reporting Station
Overcast Overcast  
Wind Chill: 53°   Ceiling: 7500
Heat Index: 53°   Visibility: 10mi
Dew Point: 28°   Wind: 3mph
Humidity: 38%   Direction: 160°SSE
Pressure: 30.2"   Gusts: NA
Location:  39.42°N, 80.28°W
Report Text: KCKB 222053Z 16003KT 10SM OVC075 12/M02 A3020 RMK AO2 SLP231 T01171022 58019
Loading
Personal Weather Stations






























Interactive Weather Map New forecast layout! Learn more

10-Day Weather Forecast

Advertisements
Track Severe Weather on mobile